Time;durP1;ratioP1;P1;durP2;ratioP2;P2;SDS_P1;SDS_P2;PMS_P1;PMS_P2;Temp;Humidity;BMP_temperature;BMP_pressure;BME280_temperature;BME280_humidity;BME280_pressure;Samples;Min_cycle;Max_cycle;Signal;HPM_P1;HPM_P2
2022/09/18 00:01:32;;;;;;;0.80;0.28;;;7.00;99.90;;;;;;5071875;28;20059;-45
2022/09/18 00:04:02;;;;;;;1.65;0.40;;;7.00;99.90;;;;;;5072068;28;20036;-45
2022/09/18 00:06:31;;;;;;;0.73;0.50;;;7.00;99.90;;;;;;5072345;28;20068;-45
2022/09/18 00:09:00;;;;;;;0.85;0.50;;;7.10;99.90;;;;;;5068383;28;20127;-45
2022/09/18 00:11:34;;;;;;;0.50;0.40;;;7.10;99.90;;;;;;5071722;28;20047;-45
2022/09/18 00:14:02;;;;;;;0.60;0.40;;;7.00;99.90;;;;;;5071687;28;20041;-45
2022/09/18 00:16:29;;;;;;;1.58;0.50;;;7.00;99.90;;;;;;5070618;28;20044;-45
2022/09/18 00:18:56;;;;;;;3.20;0.60;;;7.00;99.90;;;;;;5054488;28;20083;-45
2022/09/18 00:21:24;;;;;;;1.73;0.50;;;7.10;99.90;;;;;;5071272;28;20048;-45
2022/09/18 00:23:54;;;;;;;1.83;0.52;;;7.10;99.90;;;;;;5070760;28;20227;-45
2022/09/18 00:26:21;;;;;;;1.38;0.40;;;7.00;99.90;;;;;;5071777;28;20552;-45
2022/09/18 00:28:48;;;;;;;;;;;7.10;99.90;;;;;;5071866;28;20155;-45
2022/09/18 00:31:17;;;;;;;1.75;0.50;;;7.10;99.90;;;;;;5054302;28;20442;-45
2022/09/18 00:33:44;;;;;;;1.02;0.30;;;7.10;99.90;;;;;;5052327;28;20051;-45
2022/09/18 00:36:13;;;;;;;0.90;0.25;;;7.10;99.90;;;;;;5054035;28;20544;-45
2022/09/18 00:38:41;;;;;;;0.75;0.35;;;7.00;99.90;;;;;;5066663;28;20473;-44
2022/09/18 00:41:11;;;;;;;;;;;7.00;99.90;;;;;;5072076;28;20135;-45
2022/09/18 00:43:38;;;;;;;0.30;0.30;;;7.00;99.90;;;;;;5070461;28;19920;-45
2022/09/18 00:46:13;;;;;;;0.73;0.20;;;7.00;99.90;;;;;;5072261;28;20072;-45
2022/09/18 00:49:13;;;;;;;0.20;0.20;;;7.10;99.90;;;;;;5070280;28;20036;-45
2022/09/18 00:51:41;;;;;;;0.55;0.20;;;7.10;99.90;;;;;;5048909;28;20052;-45
2022/09/18 00:54:20;;;;;;;0.40;0.30;;;7.10;99.90;;;;;;5070095;28;20052;-45
2022/09/18 00:56:51;;;;;;;0.82;0.50;;;7.10;99.90;;;;;;5071710;28;20040;-45
2022/09/18 00:59:25;;;;;;;0.95;0.20;;;7.20;99.90;;;;;;5070807;28;20124;-45
2022/09/18 01:01:52;;;;;;;0.20;0.20;;;7.20;99.90;;;;;;5052641;28;20075;-45
2022/09/18 01:04:19;;;;;;;0.52;0.38;;;7.20;99.90;;;;;;5070784;28;20386;-45
2022/09/18 01:06:49;;;;;;;0.30;0.30;;;7.20;99.90;;;;;;5070836;28;20438;-46
2022/09/18 01:09:43;;;;;;;0.93;0.55;;;7.20;99.90;;;;;;5069977;28;20036;-45
2022/09/18 01:12:35;;;;;;;0.38;0.38;;;7.20;99.90;;;;;;5068275;28;20036;-45
2022/09/18 01:15:16;;;;;;;0.35;0.20;;;7.20;99.90;;;;;;5070889;28;20044;-45
2022/09/18 01:18:08;;;;;;;0.85;0.40;;;7.20;99.90;;;;;;5052094;28;20106;-45
2022/09/18 01:21:13;;;;;;;0.40;0.40;;;7.20;99.90;;;;;;5052761;28;20091;-45
2022/09/18 01:23:42;;;;;;;2.42;0.35;;;7.20;99.90;;;;;;5069088;28;20094;-45
2022/09/18 01:26:34;;;;;;;1.55;0.22;;;7.20;99.90;;;;;;5053009;28;20047;-44
2022/09/18 01:29:06;;;;;;;2.28;0.40;;;7.20;99.90;;;;;;5052220;28;20066;-45
2022/09/18 01:31:51;;;;;;;0.40;0.22;;;7.20;99.90;;;;;;5050824;28;20106;-45
2022/09/18 01:34:46;;;;;;;3.03;0.85;;;7.30;99.90;;;;;;5065730;28;20049;-45
2022/09/18 01:37:27;;;;;;;0.30;0.30;;;7.30;99.90;;;;;;5034872;28;20068;-44
2022/09/18 01:40:01;;;;;;;0.77;0.50;;;7.30;99.90;;;;;;5052754;28;20061;-45
2022/09/18 01:42:30;;;;;;;2.78;0.60;;;7.30;99.90;;;;;;5047308;28;20044;-45
2022/09/18 01:45:00;;;;;;;1.90;0.47;;;7.30;99.90;;;;;;5052306;28;20160;-44
2022/09/18 01:47:33;;;;;;;1.08;0.70;;;7.30;99.90;;;;;;5052184;28;20444;-45
2022/09/18 01:50:02;;;;;;;0.80;0.75;;;7.20;99.90;;;;;;5035782;28;20045;-44
2022/09/18 01:52:35;;;;;;;1.65;0.50;;;7.30;99.90;;;;;;5032863;28;20474;-45
2022/09/18 01:55:05;;;;;;;1.60;0.85;;;7.20;99.90;;;;;;5031755;28;20076;-44
2022/09/18 01:58:04;;;;;;;0.80;0.70;;;7.20;99.90;;;;;;5049369;28;20417;-44
2022/09/18 02:00:32;;;;;;;1.00;0.73;;;7.20;99.90;;;;;;5044547;28;20044;-45
2022/09/18 02:03:12;;;;;;;1.52;1.08;;;7.20;99.90;;;;;;5052332;28;20118;-45
2022/09/18 02:05:45;;;;;;;1.73;1.05;;;7.20;99.90;;;;;;5051576;28;20041;-45
2022/09/18 02:08:32;;;;;;;0.90;0.60;;;7.20;99.90;;;;;;5052411;28;20043;-44
2022/09/18 02:11:08;;;;;;;0.60;0.60;;;7.20;99.90;;;;;;5052608;28;20052;-44
2022/09/18 02:13:41;;;;;;;1.55;0.85;;;7.20;99.90;;;;;;5068824;28;20378;-45
2022/09/18 02:16:29;;;;;;;0.90;0.73;;;7.20;99.90;;;;;;5052685;28;20063;-44
2022/09/18 02:18:58;;;;;;;1.25;0.80;;;7.10;99.90;;;;;;5052478;28;20044;-44
2022/09/18 02:21:29;;;;;;;2.35;1.00;;;7.10;99.90;;;;;;5062750;28;20405;-45
2022/09/18 02:24:05;;;;;;;1.98;0.80;;;7.10;99.90;;;;;;5072142;28;20040;-46
2022/09/18 02:26:34;;;;;;;0.90;0.75;;;7.10;99.90;;;;;;5072294;28;20093;-44
2022/09/18 02:29:01;;;;;;;0.80;0.60;;;7.10;99.90;;;;;;5057944;28;20036;-45
2022/09/18 02:31:28;;;;;;;1.02;0.60;;;7.20;99.90;;;;;;5072218;28;20108;-45
2022/09/18 02:33:56;;;;;;;1.13;0.55;;;7.20;99.90;;;;;;5072074;28;20047;-45
2022/09/18 02:36:47;;;;;;;1.38;0.47;;;7.20;99.90;;;;;;5093938;28;20044;-44
2022/09/18 02:39:29;;;;;;;0.98;0.40;;;7.20;99.90;;;;;;5069640;28;20123;-46
2022/09/18 02:42:12;;;;;;;1.13;0.60;;;7.10;99.90;;;;;;5036402;28;20045;-45
2022/09/18 02:45:07;;;;;;;0.43;0.22;;;7.10;99.90;;;;;;5043103;28;20110;-45
2022/09/18 02:47:48;;;;;;;0.82;0.40;;;7.20;99.90;;;;;;5071717;28;20040;-45
2022/09/18 02:50:31;;;;;;;0.55;0.40;;;7.20;99.90;;;;;;5055198;28;20484;-45
2022/09/18 02:53:15;;;;;;;0.82;0.40;;;7.20;99.90;;;;;;5056203;28;20041;-45
2022/09/18 02:55:53;;;;;;;0.43;0.40;;;7.20;99.90;;;;;;5049317;28;20049;-46
2022/09/18 02:58:29;;;;;;;1.38;0.50;;;7.20;99.90;;;;;;5073749;28;20074;-44
2022/09/18 03:01:00;;;;;;;0.47;0.40;;;7.20;99.90;;;;;;5054718;28;20083;-45
2022/09/18 03:03:30;;;;;;;0.68;0.40;;;7.20;99.90;;;;;;5055855;28;20106;-45
2022/09/18 03:06:01;;;;;;;1.27;0.32;;;7.20;99.90;;;;;;5055089;28;20421;-44
2022/09/18 03:08:31;;;;;;;2.25;0.80;;;7.40;99.90;;;;;;5054617;28;20041;-45
2022/09/18 03:10:57;;;;;;;0.77;0.68;;;7.20;99.90;;;;;;5063133;28;20052;-45
2022/09/18 03:13:26;;;;;;;0.73;0.73;;;7.20;99.90;;;;;;5035712;28;20509;-45
2022/09/18 03:15:54;;;;;;;0.40;0.40;;;7.20;99.90;;;;;;5035495;28;20084;-45
2022/09/18 03:18:22;;;;;;;1.38;0.32;;;7.10;99.90;;;;;;5050406;28;20052;-44
2022/09/18 03:20:48;;;;;;;0.82;0.60;;;7.10;99.90;;;;;;5055602;28;20041;-45
2022/09/18 03:23:15;;;;;;;0.98;0.40;;;7.10;99.90;;;;;;5054071;28;20457;-44
2022/09/18 03:25:50;;;;;;;0.65;0.50;;;7.10;99.90;;;;;;5055291;28;20060;-46
2022/09/18 03:28:17;;;;;;;0.50;0.47;;;7.10;99.90;;;;;;5072614;28;20048;-45
2022/09/18 03:30:44;;;;;;;;;;;7.10;99.90;;;;;;5073870;28;20048;-44
2022/09/18 03:33:12;;;;;;;0.70;0.50;;;7.10;99.90;;;;;;5067232;28;19924;-44
2022/09/18 03:35:41;;;;;;;0.82;0.63;;;7.10;99.90;;;;;;5047005;28;20064;-45
2022/09/18 03:38:09;;;;;;;0.60;0.60;;;7.10;99.90;;;;;;5054911;28;20058;-45
2022/09/18 03:40:36;;;;;;;;;;;7.10;99.90;;;;;;5055647;28;20052;-44
2022/09/18 03:43:04;;;;;;;2.33;0.40;;;7.10;99.90;;;;;;5071798;28;19924;-45
2022/09/18 03:45:31;;;;;;;2.03;0.63;;;7.10;99.90;;;;;;5053838;28;20040;-44
2022/09/18 03:47:59;;;;;;;1.30;0.70;;;7.10;99.90;;;;;;5053914;28;20050;-44
2022/09/18 03:50:27;;;;;;;0.52;0.52;;;7.20;99.90;;;;;;5054659;28;20433;-44
2022/09/18 03:52:55;;;;;;;1.00;0.45;;;7.20;99.90;;;;;;5049749;28;20059;-44
2022/09/18 03:55:32;;;;;;;;;;;7.10;99.90;;;;;;5055223;28;20060;-44
2022/09/18 03:58:22;;;;;;;0.70;0.65;;;7.10;99.90;;;;;;5067627;28;19967;-44
2022/09/18 04:01:08;;;;;;;0.52;0.45;;;7.10;99.90;;;;;;5067643;28;20098;-45
2022/09/18 04:03:55;;;;;;;1.02;0.85;;;7.10;99.90;;;;;;5070797;28;20048;-45
2022/09/18 04:06:40;;;;;;;1.25;0.60;;;7.10;99.90;;;;;;5072378;28;20048;-44
2022/09/18 04:09:30;;;;;;;0.65;0.63;;;7.10;99.90;;;;;;5071031;28;20051;-45
2022/09/18 04:11:58;;;;;;;1.00;0.80;;;7.10;99.90;;;;;;5054519;28;20574;-44
2022/09/18 04:14:25;;;;;;;0.95;0.68;;;7.10;99.90;;;;;;5053645;28;20572;-45
2022/09/18 04:16:56;;;;;;;3.70;0.70;;;7.10;99.90;;;;;;5053554;28;20044;-44
2022/09/18 04:19:23;;;;;;;3.05;1.00;;;7.10;99.90;;;;;;5072466;28;20079;-44
2022/09/18 04:21:49;;;;;;;0.65;0.60;;;7.10;99.90;;;;;;5071556;28;20045;-45
2022/09/18 04:24:16;;;;;;;0.90;0.70;;;7.10;99.90;;;;;;5053097;28;20639;-45
2022/09/18 04:26:43;;;;;;;0.52;0.52;;;7.10;99.90;;;;;;5065573;28;20120;-44
2022/09/18 04:29:12;;;;;;;0.40;0.40;;;7.00;99.90;;;;;;5054052;28;20390;-44
2022/09/18 04:31:38;;;;;;;1.10;0.60;;;7.00;99.90;;;;;;5053085;28;20056;-45
2022/09/18 04:34:10;;;;;;;0.80;0.55;;;7.00;99.90;;;;;;5050799;28;20048;-45
2022/09/18 04:36:37;;;;;;;0.60;0.60;;;7.00;99.90;;;;;;5053495;28;20566;-44
2022/09/18 04:39:05;;;;;;;1.45;0.60;;;7.00;99.90;;;;;;5054001;28;20421;-45
2022/09/18 04:41:34;;;;;;;0.65;0.60;;;7.00;99.90;;;;;;5053028;28;20041;-44
2022/09/18 04:44:02;;;;;;;0.70;0.70;;;7.00;99.90;;;;;;5053102;28;20063;-45
2022/09/18 04:46:29;;;;;;;2.83;0.90;;;6.90;99.90;;;;;;5053792;28;20496;-44
2022/09/18 04:48:56;;;;;;;1.45;0.95;;;6.90;99.90;;;;;;5053949;28;20405;-44
2022/09/18 04:51:25;;;;;;;0.82;0.65;;;6.90;99.90;;;;;;5052713;28;20420;-44
2022/09/18 04:53:52;;;;;;;1.13;0.93;;;6.90;99.90;;;;;;5053221;28;20070;-44
2022/09/18 04:56:19;;;;;;;1.70;1.00;;;6.90;99.90;;;;;;5053627;28;20131;-44
2022/09/18 04:58:49;;;;;;;1.17;0.70;;;6.90;99.90;;;;;;5051729;28;20064;-45
2022/09/18 05:01:16;;;;;;;1.25;0.95;;;6.90;99.90;;;;;;5052438;28;20083;-44
2022/09/18 05:03:43;;;;;;;1.58;1.30;;;7.00;99.90;;;;;;5052563;28;20095;-45
2022/09/18 05:06:18;;;;;;;1.50;1.02;;;6.90;99.90;;;;;;5052756;28;20524;-46
2022/09/18 05:08:45;;;;;;;2.85;0.95;;;6.90;99.90;;;;;;5053403;28;20048;-44
2022/09/18 05:11:12;;;;;;;3.75;1.58;;;6.80;99.90;;;;;;5052375;28;20543;-45
2022/09/18 05:13:39;;;;;;;2.75;1.20;;;6.90;99.90;;;;;;5052874;28;20044;-45
2022/09/18 05:16:13;;;;;;;2.95;1.48;;;6.90;99.90;;;;;;5052343;28;20059;-45
2022/09/18 05:18:41;;;;;;;2.25;1.23;;;6.90;99.90;;;;;;5052303;28;20045;-44
2022/09/18 05:21:09;;;;;;;2.88;1.15;;;7.00;99.90;;;;;;5050049;28;20440;-45
2022/09/18 05:23:36;;;;;;;0.85;0.85;;;7.00;99.90;;;;;;5040314;28;20568;-44
2022/09/18 05:26:03;;;;;;;1.13;0.90;;;7.00;99.90;;;;;;5032110;28;20541;-45
2022/09/18 05:28:30;;;;;;;2.83;1.30;;;7.00;99.90;;;;;;5039496;28;20043;-44
2022/09/18 05:30:59;;;;;;;1.98;0.90;;;7.00;99.90;;;;;;5052079;28;20519;-44
2022/09/18 05:33:32;;;;;;;1.45;1.00;;;7.00;99.90;;;;;;5052776;28;20044;-44
2022/09/18 05:35:59;;;;;;;1.27;1.00;;;6.90;99.90;;;;;;5066126;28;20076;-44
2022/09/18 05:38:26;;;;;;;1.08;0.90;;;6.90;99.90;;;;;;5052915;28;20424;-45
2022/09/18 05:40:53;;;;;;;1.95;0.95;;;7.00;99.90;;;;;;5051128;28;20467;-45
2022/09/18 05:43:21;;;;;;;1.23;0.80;;;7.00;99.90;;;;;;5067954;22;20566;-47
2022/09/18 05:45:52;;;;;;;0.85;0.70;;;6.90;99.90;;;;;;5052379;28;20119;-47
2022/09/18 05:48:28;;;;;;;1.10;1.00;;;7.00;99.90;;;;;;5038902;28;20049;-47
2022/09/18 05:50:56;;;;;;;1.58;1.10;;;6.90;99.90;;;;;;5027648;28;20069;-47
2022/09/18 05:53:26;;;;;;;1.02;0.85;;;7.00;99.90;;;;;;5029299;28;20053;-47
2022/09/18 05:56:03;;;;;;;2.67;1.08;;;7.00;99.90;;;;;;5036720;28;20562;-47
2022/09/18 05:58:30;;;;;;;1.00;0.80;;;7.00;99.90;;;;;;5066706;28;20068;-48
2022/09/18 06:01:00;;;;;;;1.27;1.10;;;7.00;99.90;;;;;;5070111;28;20041;-46
2022/09/18 06:03:40;;;;;;;1.02;0.90;;;7.00;99.90;;;;;;5051115;28;20044;-46
2022/09/18 06:06:07;;;;;;;;;;;7.00;99.90;;;;;;5053130;28;20037;-46
2022/09/18 06:08:35;;;;;;;0.95;0.75;;;7.00;99.90;;;;;;5050377;28;20403;-46
2022/09/18 06:11:02;;;;;;;;;;;7.00;99.90;;;;;;5055741;28;20135;-47
2022/09/18 06:13:30;;;;;;;1.58;1.17;;;7.00;99.90;;;;;;5055266;28;19966;-47
2022/09/18 06:15:58;;;;;;;1.48;1.17;;;7.00;99.90;;;;;;5056863;28;20173;-47
2022/09/18 06:18:43;;;;;;;2.75;1.20;;;7.10;99.90;;;;;;5065556;28;20054;-47
2022/09/18 06:21:13;;;;;;;1.17;1.00;;;7.10;99.90;;;;;;5056372;28;20041;-47
2022/09/18 06:23:41;;;;;;;1.20;1.08;;;7.10;99.90;;;;;;5054519;28;20522;-48
2022/09/18 06:26:22;;;;;;;2.13;1.17;;;7.10;99.90;;;;;;5055304;28;20054;-46
2022/09/18 06:28:50;;;;;;;1.25;0.90;;;7.10;99.90;;;;;;5055586;28;20497;-47
2022/09/18 06:31:17;;;;;;;1.38;1.02;;;7.20;99.90;;;;;;5056206;28;20047;-47
2022/09/18 06:34:01;;;;;;;1.20;1.02;;;7.20;99.90;;;;;;5054554;28;20495;-47
2022/09/18 06:36:27;;;;;;;1.20;1.10;;;7.20;99.90;;;;;;5056409;28;20045;-46
2022/09/18 06:39:02;;;;;;;4.43;1.05;;;7.20;99.90;;;;;;5056084;28;20048;-47
2022/09/18 06:41:29;;;;;;;1.90;1.40;;;7.20;99.90;;;;;;5054621;28;20131;-47
2022/09/18 06:43:56;;;;;;;1.60;1.13;;;7.20;99.90;;;;;;5053820;28;20052;-47
2022/09/18 06:46:31;;;;;;;1.33;0.98;;;7.20;99.90;;;;;;5055685;28;20036;-46
2022/09/18 06:49:08;;;;;;;1.02;0.90;;;7.20;99.90;;;;;;5055241;28;20493;-47
2022/09/18 06:51:40;;;;;;;1.10;0.80;;;7.30;99.90;;;;;;5054007;28;20516;-47
2022/09/18 06:54:12;;;;;;;1.48;0.52;;;7.30;99.90;;;;;;5055606;28;20049;-46
2022/09/18 06:56:40;;;;;;;0.65;0.63;;;7.40;99.90;;;;;;5056049;28;20044;-46
2022/09/18 06:59:09;;;;;;;0.93;0.80;;;7.40;99.90;;;;;;5073675;28;20045;-47
2022/09/18 07:01:36;;;;;;;1.23;0.95;;;7.50;99.90;;;;;;5048079;28;20094;-47
2022/09/18 07:04:11;;;;;;;2.30;1.05;;;7.50;99.90;;;;;;5055379;28;20055;-46
2022/09/18 07:06:45;;;;;;;2.65;1.27;;;7.60;99.90;;;;;;5055174;28;20072;-47
2022/09/18 07:09:13;;;;;;;26.20;9.25;;;7.60;99.90;;;;;;5068680;28;20032;-48
2022/09/18 07:11:52;;;;;;;17.45;8.73;;;7.60;99.90;;;;;;5073831;28;20045;-47
2022/09/18 07:14:25;;;;;;;2.20;1.17;;;7.60;99.90;;;;;;5054694;28;20052;-46
2022/09/18 07:16:56;;;;;;;4.40;1.30;;;7.60;99.90;;;;;;5054392;28;20063;-46
2022/09/18 07:19:22;;;;;;;3.20;1.80;;;7.70;99.90;;;;;;5054407;28;20048;-46
2022/09/18 07:21:51;;;;;;;3.38;1.90;;;7.70;99.90;;;;;;5054626;28;20547;-47
2022/09/18 07:24:18;;;;;;;1.27;1.00;;;7.70;99.90;;;;;;5051198;28;20164;-46
2022/09/18 07:26:45;;;;;;;3.08;2.15;;;7.70;99.90;;;;;;5055262;28;20037;-46
2022/09/18 07:29:12;;;;;;;0.70;0.70;;;7.70;99.90;;;;;;5068136;28;20489;-46
2022/09/18 07:31:38;;;;;;;1.63;1.05;;;7.60;99.90;;;;;;5073255;28;20036;-47
2022/09/18 07:34:08;;;;;;;1.10;1.00;;;7.60;99.90;;;;;;5063931;28;20106;-47
2022/09/18 07:36:34;;;;;;;0.98;0.80;;;7.60;99.90;;;;;;5055073;28;20454;-47
2022/09/18 07:39:02;;;;;;;1.08;1.00;;;7.60;99.90;;;;;;5054951;28;20101;-47
2022/09/18 07:41:38;;;;;;;2.35;1.60;;;7.60;99.90;;;;;;5055405;28;20044;-47
2022/09/18 07:44:05;;;;;;;;;;;7.70;99.90;;;;;;5048338;28;20077;-46
2022/09/18 07:46:34;;;;;;;4.22;1.50;;;7.70;99.90;;;;;;5046394;28;19928;-48
2022/09/18 07:49:03;;;;;;;3.17;2.08;;;7.80;99.90;;;;;;5053585;28;20389;-46
2022/09/18 07:51:30;;;;;;;2.22;1.13;;;7.70;99.90;;;;;;5053326;28;20068;-48
2022/09/18 07:53:58;;;;;;;1.17;0.88;;;7.70;99.90;;;;;;5054337;28;20048;-46
2022/09/18 07:56:42;;;;;;;2.38;1.10;;;7.70;99.90;;;;;;5053762;28;20053;-46
2022/09/18 07:59:15;;;;;;;2.88;1.40;;;7.80;99.90;;;;;;5055091;28;20049;-46
2022/09/18 08:01:42;;;;;;;4.38;1.67;;;7.90;99.90;;;;;;5051148;28;20094;-46
2022/09/18 08:04:10;;;;;;;3.13;1.52;;;7.90;99.90;;;;;;5053575;28;20072;-46
2022/09/18 08:07:09;;;;;;;;;;;8.00;99.90;;;;;;5059098;28;20060;-46
2022/09/18 08:09:53;;;;;;;2.28;1.70;;;8.00;99.90;;;;;;5055474;28;19928;-47
2022/09/18 08:12:36;;;;;;;1.58;0.85;;;8.00;99.90;;;;;;5054505;28;20056;-46
2022/09/18 08:15:27;;;;;;;3.65;2.20;;;8.00;99.90;;;;;;5057743;28;20119;-46
2022/09/18 08:18:23;;;;;;;1.60;1.30;;;8.10;99.90;;;;;;5053374;28;20408;-46
2022/09/18 08:20:58;;;;;;;1.67;1.15;;;8.20;99.90;;;;;;5053600;28;20334;-46
2022/09/18 08:23:30;;;;;;;1.70;1.00;;;8.20;99.90;;;;;;5054045;28;20444;-47
2022/09/18 08:26:01;;;;;;;1.15;0.80;;;8.20;99.90;;;;;;5057704;28;20504;-47
2022/09/18 08:28:28;;;;;;;1.40;0.80;;;8.30;99.90;;;;;;5053295;28;20410;-47
2022/09/18 08:30:58;;;;;;;1.67;1.00;;;8.30;99.90;;;;;;5054138;28;20123;-47
2022/09/18 08:33:25;;;;;;;1.48;0.98;;;8.20;99.90;;;;;;5050505;28;20048;-47
2022/09/18 08:35:53;;;;;;;;;;;8.30;99.90;;;;;;5072239;28;20033;-47
2022/09/18 08:38:29;;;;;;;1.70;1.20;;;8.40;99.90;;;;;;5053572;28;19932;-48
2022/09/18 08:41:37;;;;;;;2.95;1.40;;;8.40;99.90;;;;;;5053960;28;20416;-47
2022/09/18 08:44:10;;;;;;;3.30;1.23;;;8.40;99.90;;;;;;5048599;28;20457;-47
2022/09/18 08:46:59;;;;;;;2.60;1.48;;;8.40;99.90;;;;;;5046249;28;20498;-46
2022/09/18 08:49:33;;;;;;;2.92;1.42;;;8.30;99.90;;;;;;5052946;28;20091;-46
2022/09/18 08:52:21;;;;;;;2.67;1.48;;;8.40;99.90;;;;;;5046019;28;20129;-46
2022/09/18 08:55:33;;;;;;;7.32;2.22;;;8.30;99.90;;;;;;5047039;28;20040;-47
2022/09/18 08:58:29;;;;;;;2.72;1.20;;;8.30;99.90;;;;;;5055558;28;20040;-46
2022/09/18 09:01:02;;;;;;;5.30;2.47;;;8.40;99.90;;;;;;5048866;28;20390;-47
2022/09/18 09:03:58;;;;;;;3.13;1.40;;;8.40;99.90;;;;;;5070746;28;20047;-46
2022/09/18 09:07:27;;;;;;;5.05;1.85;;;8.40;99.90;;;;;;5053288;28;20501;-47
2022/09/18 09:10:08;;;;;;;3.20;2.10;;;8.50;99.90;;;;;;4939137;28;20051;-47
2022/09/18 09:13:15;;;;;;;2.05;1.17;;;8.70;99.90;;;;;;5053377;28;20416;-47
2022/09/18 09:15:55;;;;;;;3.20;0.82;;;8.70;99.90;;;;;;5048391;28;20041;-47
2022/09/18 09:18:52;;;;;;;8.50;2.28;;;8.60;99.90;;;;;;5051560;28;20095;-46
2022/09/18 09:21:43;;;;;;;1.75;0.80;;;8.60;99.90;;;;;;5038277;28;20458;-46
2022/09/18 09:24:30;;;;;;;2.40;1.23;;;8.60;99.90;;;;;;5052343;28;20052;-47
2022/09/18 09:27:25;;;;;;;2.83;1.00;;;8.70;99.90;;;;;;5066462;28;20042;-46
2022/09/18 09:30:10;;;;;;;4.03;2.25;;;8.70;99.90;;;;;;5052883;28;20040;-47
2022/09/18 09:33:26;;;;;;;2.75;1.40;;;8.80;99.90;;;;;;5051613;28;20055;-46
2022/09/18 09:36:20;;;;;;;3.28;1.20;;;9.00;99.90;;;;;;5052677;28;20052;-47
2022/09/18 09:38:57;;;;;;;3.30;1.45;;;9.20;99.90;;;;;;5070727;28;20126;-47
2022/09/18 09:41:43;;;;;;;2.95;1.00;;;9.30;99.90;;;;;;5051201;28;20136;-47
2022/09/18 09:44:38;;;;;;;3.83;1.67;;;9.40;99.90;;;;;;5070282;28;20071;-47
2022/09/18 09:47:23;;;;;;;3.85;1.65;;;9.40;99.90;;;;;;5052053;28;20037;-48
2022/09/18 09:49:58;;;;;;;2.13;1.15;;;9.20;99.90;;;;;;5051771;28;20051;-47
2022/09/18 09:52:27;;;;;;;1.60;1.10;;;9.00;99.90;;;;;;5035535;28;20072;-46
2022/09/18 09:55:14;;;;;;;3.20;1.65;;;9.10;99.90;;;;;;5052561;28;20150;-47
2022/09/18 09:58:08;;;;;;;5.40;1.77;;;9.30;99.90;;;;;;5049944;28;20040;-47
2022/09/18 10:00:47;;;;;;;4.70;1.55;;;9.40;99.90;;;;;;5045736;28;20091;-47
2022/09/18 10:03:39;;;;;;;1.58;0.80;;;9.30;99.90;;;;;;5052364;28;20501;-48
2022/09/18 10:06:44;;;;;;;4.95;1.58;;;9.30;99.90;;;;;;5050981;28;20045;-50
2022/09/18 10:09:15;;;;;;;5.38;1.50;;;9.40;99.90;;;;;;5052783;28;20094;-47
2022/09/18 10:12:24;;;;;;;5.28;2.03;;;9.40;99.90;;;;;;5052639;28;20044;-47
2022/09/18 10:15:02;;;;;;;1.05;0.80;;;9.60;99.90;;;;;;5007226;28;20041;-47
2022/09/18 10:17:35;;;;;;;1.33;0.68;;;9.70;99.90;;;;;;5052070;28;20070;-47
2022/09/18 10:20:04;;;;;;;1.67;0.80;;;9.60;99.90;;;;;;5048913;28;20191;-47
2022/09/18 10:22:33;;;;;;;1.70;0.93;;;9.60;99.90;;;;;;5070357;28;20032;-47
2022/09/18 10:25:06;;;;;;;8.07;1.52;;;9.60;99.90;;;;;;5069308;28;20110;-47
2022/09/18 10:27:33;;;;;;;1.38;0.93;;;9.80;99.90;;;;;;5052760;28;20106;-46
2022/09/18 10:30:11;;;;;;;2.20;1.00;;;9.70;99.90;;;;;;5054600;28;20068;-47
2022/09/18 10:32:44;;;;;;;1.25;0.70;;;9.80;99.90;;;;;;5052723;28;20041;-46
2022/09/18 10:35:28;;;;;;;3.17;1.45;;;9.90;99.90;;;;;;5052196;28;20064;-48
2022/09/18 10:37:56;;;;;;;6.93;2.75;;;10.00;99.90;;;;;;5049321;28;20041;-47
2022/09/18 10:40:38;;;;;;;12.40;4.88;;;10.20;99.90;;;;;;5052358;28;20033;-47
2022/09/18 10:43:16;;;;;;;2.40;0.95;;;10.30;99.90;;;;;;5052161;28;20412;-47
2022/09/18 10:45:54;;;;;;;1.27;0.68;;;10.40;99.90;;;;;;5055068;28;20589;-47
2022/09/18 10:48:35;;;;;;;;;;;10.40;99.90;;;;;;5052213;28;20049;-47
2022/09/18 10:51:03;;;;;;;1.65;1.30;;;10.70;99.90;;;;;;5052320;28;19920;-47
2022/09/18 10:53:43;;;;;;;1.45;0.88;;;11.00;99.90;;;;;;5045697;28;20166;-47
2022/09/18 10:56:19;;;;;;;1.10;1.00;;;11.20;99.90;;;;;;5052445;28;20056;-47
2022/09/18 10:58:47;;;;;;;1.33;1.00;;;11.20;99.90;;;;;;5055581;28;20045;-47
2022/09/18 11:01:15;;;;;;;3.17;1.23;;;11.30;99.90;;;;;;5050653;28;20644;-48
2022/09/18 11:03:57;;;;;;;2.15;1.00;;;11.40;99.90;;;;;;5054969;28;20048;-47
2022/09/18 11:06:30;;;;;;;2.40;1.00;;;11.30;99.90;;;;;;5054269;28;20144;-47
2022/09/18 11:09:07;;;;;;;2.20;1.35;;;11.20;99.90;;;;;;5054421;28;20080;-47
2022/09/18 11:11:37;;;;;;;2.63;1.60;;;11.30;99.90;;;;;;5048129;28;20045;-47
2022/09/18 11:14:36;;;;;;;1.60;1.20;;;11.50;99.90;;;;;;5054472;28;20242;-46
2022/09/18 11:17:21;;;;;;;2.03;1.13;;;11.40;99.90;;;;;;5054370;28;20041;-47
2022/09/18 11:19:51;;;;;;;1.83;1.33;;;11.60;99.90;;;;;;5055223;28;20139;-48
2022/09/18 11:22:32;;;;;;;4.90;2.30;;;11.70;99.90;;;;;;5055532;28;20139;-47
2022/09/18 11:25:13;;;;;;;2.83;1.42;;;11.80;99.90;;;;;;5051429;28;20045;-47
2022/09/18 11:27:56;;;;;;;2.30;0.90;;;11.90;99.90;;;;;;5048630;28;20136;-47
2022/09/18 11:30:27;;;;;;;1.27;0.85;;;11.90;99.90;;;;;;5069775;28;20045;-47
2022/09/18 11:33:24;;;;;;;1.40;1.15;;;12.00;99.90;;;;;;5062570;28;20501;-48
2022/09/18 11:36:11;;;;;;;2.47;1.30;;;12.10;99.90;;;;;;5049608;28;20533;-48
2022/09/18 11:38:44;;;;;;;3.75;2.53;;;12.40;99.90;;;;;;5054614;28;20047;-47
2022/09/18 11:41:20;;;;;;;1.75;1.08;;;12.30;99.90;;;;;;5065172;28;20517;-47
2022/09/18 11:44:03;;;;;;;1.90;1.67;;;12.40;99.90;;;;;;5068104;22;20045;-47
2022/09/18 11:46:36;;;;;;;1.58;0.73;;;12.50;99.90;;;;;;5059190;28;20378;-47
2022/09/18 11:49:11;;;;;;;0.88;0.50;;;12.50;99.90;;;;;;5072645;28;20044;-47
2022/09/18 11:51:44;;;;;;;2.25;2.00;;;12.70;99.90;;;;;;5082299;28;20408;-46
2022/09/18 11:54:24;;;;;;;5.05;2.22;;;12.60;99.90;;;;;;5083553;28;20052;-46
2022/09/18 11:56:57;;;;;;;2.30;1.50;;;12.80;99.90;;;;;;5053761;28;20040;-48
2022/09/18 12:00:06;;;;;;;4.10;3.15;;;13.00;99.90;;;;;;5053530;28;20049;-47
2022/09/18 12:02:58;;;;;;;1.67;1.05;;;12.70;99.90;;;;;;5030072;28;20055;-47
2022/09/18 12:05:37;;;;;;;1.35;0.80;;;12.40;99.90;;;;;;5053942;28;20135;-46
2022/09/18 12:08:14;;;;;;;1.35;0.77;;;12.30;99.90;;;;;;5053880;28;20507;-46
2022/09/18 12:11:05;;;;;;;1.63;1.00;;;12.20;99.90;;;;;;5054157;28;20094;-46
2022/09/18 12:13:40;;;;;;;1.75;1.20;;;12.20;99.90;;;;;;5052622;28;20500;-47
2022/09/18 12:16:12;;;;;;;1.83;1.02;;;12.20;99.90;;;;;;5051033;28;20041;-47
2022/09/18 12:18:48;;;;;;;1.98;0.98;;;12.20;99.90;;;;;;5052740;28;20053;-46
2022/09/18 12:21:20;;;;;;;1.42;0.93;;;12.30;99.90;;;;;;5052011;28;20135;-47
2022/09/18 12:23:48;;;;;;;2.70;1.02;;;12.40;99.90;;;;;;5052178;28;20694;-46
2022/09/18 12:26:53;;;;;;;4.15;1.70;;;12.50;99.90;;;;;;5054128;28;20052;-46
2022/09/18 12:29:31;;;;;;;2.28;0.85;;;12.80;99.90;;;;;;5053156;28;20467;-48
2022/09/18 12:32:24;;;;;;;0.70;0.70;;;12.80;99.90;;;;;;5072416;28;20488;-46
2022/09/18 12:35:16;;;;;;;1.17;0.75;;;12.90;99.90;;;;;;5071586;28;20124;-47
2022/09/18 12:38:10;;;;;;;4.30;0.63;;;13.00;99.90;;;;;;5051799;28;20086;-48
2022/09/18 12:41:01;;;;;;;1.92;0.90;;;13.10;99.90;;;;;;5032973;28;20061;-50
2022/09/18 12:43:53;;;;;;;1.73;0.88;;;13.20;99.90;;;;;;5063996;28;20102;-51
2022/09/18 12:46:25;;;;;;;1.10;0.60;;;13.20;99.90;;;;;;5071867;28;20076;-47
2022/09/18 12:49:11;;;;;;;1.17;0.70;;;13.10;99.90;;;;;;5071897;28;20132;-45
2022/09/18 12:51:44;;;;;;;2.47;0.90;;;13.00;99.90;;;;;;5064435;28;20128;-46
2022/09/18 12:54:20;;;;;;;4.10;3.70;;;12.90;99.90;;;;;;5071112;28;20448;-47
2022/09/18 12:57:00;;;;;;;4.25;3.20;;;12.80;99.90;;;;;;5071889;28;20115;-47
2022/09/18 12:59:42;;;;;;;4.15;2.40;;;12.90;99.90;;;;;;5066901;28;20515;-46
2022/09/18 13:02:27;;;;;;;4.10;1.33;;;12.90;99.90;;;;;;5071655;28;20135;-47
2022/09/18 13:05:00;;;;;;;1.45;1.10;;;13.00;99.90;;;;;;5071069;28;20127;-46
2022/09/18 13:07:39;;;;;;;2.65;1.50;;;13.20;99.90;;;;;;5066681;28;20477;-46
2022/09/18 13:10:23;;;;;;;1.80;1.20;;;13.00;99.90;;;;;;5071491;28;20116;-46
2022/09/18 13:13:24;;;;;;;1.70;1.05;;;13.20;99.90;;;;;;5071290;28;20119;-46
2022/09/18 13:16:01;;;;;;;2.70;1.27;;;13.40;99.90;;;;;;5067339;28;20123;-47
2022/09/18 13:18:50;;;;;;;1.77;1.15;;;13.50;99.90;;;;;;5071532;28;20140;-46
2022/09/18 13:21:28;;;;;;;1.80;0.95;;;13.50;99.90;;;;;;5068992;28;20048;-46
2022/09/18 13:23:57;;;;;;;1.90;1.08;;;13.40;99.90;;;;;;5070927;28;20579;-46
2022/09/18 13:26:27;;;;;;;1.13;0.88;;;13.50;99.90;;;;;;5070455;28;20135;-48
2022/09/18 13:28:54;;;;;;;1.88;1.20;;;13.80;99.90;;;;;;5067756;28;20076;-46
2022/09/18 13:31:30;;;;;;;1.70;0.98;;;14.00;99.90;;;;;;5069792;28;20123;-47
2022/09/18 13:33:58;;;;;;;2.47;1.20;;;14.30;99.90;;;;;;5070472;28;20074;-45
2022/09/18 13:36:34;;;;;;;1.17;0.80;;;14.30;99.90;;;;;;5071199;28;20048;-46
2022/09/18 13:39:05;;;;;;;0.73;0.40;;;14.50;99.90;;;;;;5068307;28;20032;-47
2022/09/18 13:41:43;;;;;;;1.30;0.57;;;14.50;99.90;;;;;;5071095;28;20055;-46
2022/09/18 13:44:34;;;;;;;1.20;0.55;;;14.60;99.90;;;;;;5065003;28;20575;-47